Time;durP1;ratioP1;P1;durP2;ratioP2;P2;SDS_P1;SDS_P2;PMS_P1;PMS_P2;Temp;Humidity;BMP_temperature;BMP_pressure;BME280_temperature;BME280_humidity;BME280_pressure;Samples;Min_cycle;Max_cycle;Signal;HPM_P1;HPM_P2
2022/09/15 00:00:17;;;;;;;55.08;22.70;;;14.70;99.90;;;;;;5056947;28;20119;-65
2022/09/15 00:02:43;;;;;;;60.85;25.92;;;14.70;99.90;;;;;;5052971;28;20375;-65
2022/09/15 00:05:09;;;;;;;57.85;24.15;;;14.70;99.90;;;;;;5067914;28;20036;-65
2022/09/15 00:07:35;;;;;;;62.85;27.75;;;14.70;99.90;;;;;;5062032;28;20390;-65
2022/09/15 00:10:02;;;;;;;54.08;24.58;;;14.70;99.90;;;;;;5052462;28;20025;-66
2022/09/15 00:12:28;;;;;;;57.55;25.83;;;14.70;99.90;;;;;;5057474;28;20091;-65
2022/09/15 00:14:53;;;;;;;60.92;26.65;;;14.70;99.90;;;;;;5065582;28;20116;-64
2022/09/15 00:17:19;;;;;;;60.30;25.13;;;14.70;99.90;;;;;;5059627;28;20104;-65
2022/09/15 00:19:44;;;;;;;72.85;26.55;;;14.70;99.90;;;;;;5055027;28;20581;-65
2022/09/15 00:22:10;;;;;;;67.25;26.77;;;14.70;99.90;;;;;;5060917;28;20530;-66
2022/09/15 00:24:36;;;;;;;58.22;26.95;;;14.70;99.90;;;;;;5069621;28;20027;-65
2022/09/15 00:27:02;;;;;;;66.20;25.35;;;14.60;99.90;;;;;;5052670;28;20491;-66
2022/09/15 00:29:27;;;;;;;57.88;24.88;;;14.70;99.90;;;;;;5052394;28;20442;-65
2022/09/15 00:31:53;;;;;;;57.47;24.58;;;14.70;99.90;;;;;;5054068;28;20024;-65
2022/09/15 00:34:19;;;;;;;55.25;24.45;;;14.70;99.90;;;;;;5049947;28;20029;-65
2022/09/15 00:36:45;;;;;;;65.25;26.88;;;14.60;99.90;;;;;;5051160;28;20039;-65
2022/09/15 00:39:11;;;;;;;64.43;25.42;;;14.60;99.90;;;;;;5049315;28;20425;-65
2022/09/15 00:41:38;;;;;;;56.67;25.50;;;14.60;99.90;;;;;;5053615;28;20033;-65
2022/09/15 00:44:25;;;;;;;63.42;23.23;;;14.70;99.90;;;;;;5052937;28;20390;-65
2022/09/15 00:46:53;;;;;;;64.30;25.67;;;14.70;99.90;;;;;;5044491;28;20040;-65
2022/09/15 00:49:26;;;;;;;55.22;21.92;;;14.70;99.90;;;;;;5050443;28;20040;-65
2022/09/15 00:52:03;;;;;;;58.17;22.95;;;14.70;99.90;;;;;;5045816;28;20029;-65
2022/09/15 00:54:58;;;;;;;51.10;22.42;;;14.70;99.90;;;;;;5049798;28;20403;-65
2022/09/15 00:57:35;;;;;;;49.78;22.88;;;14.70;99.90;;;;;;5038815;28;20040;-65
2022/09/15 01:00:05;;;;;;;55.65;23.45;;;14.60;99.90;;;;;;5047182;28;20112;-64
2022/09/15 01:02:32;;;;;;;52.78;22.30;;;14.50;99.90;;;;;;5040766;28;20439;-65
2022/09/15 01:05:00;;;;;;;53.33;21.42;;;14.40;99.90;;;;;;5040526;28;20463;-65
2022/09/15 01:07:46;;;;;;;48.72;22.80;;;14.50;99.90;;;;;;5041726;28;20028;-65
2022/09/15 01:10:27;;;;;;;51.53;21.85;;;14.40;99.90;;;;;;5041918;28;20089;-64
2022/09/15 01:12:58;;;;;;;48.92;21.75;;;14.40;99.90;;;;;;5040562;28;20025;-64
2022/09/15 01:15:42;;;;;;;52.75;23.58;;;14.40;99.90;;;;;;5039902;28;20828;-64
2022/09/15 01:18:10;;;;;;;52.00;22.63;;;14.40;99.90;;;;;;5039583;28;20033;-65
2022/09/15 01:21:00;;;;;;;49.03;21.98;;;14.30;99.90;;;;;;5040644;28;20032;-65
2022/09/15 01:24:04;;;;;;;50.33;21.95;;;14.30;99.90;;;;;;5048666;28;20036;-65
2022/09/15 01:27:00;;;;;;;45.85;21.30;;;14.30;99.90;;;;;;5058356;28;20040;-65
2022/09/15 01:29:35;;;;;;;48.33;21.38;;;14.30;99.90;;;;;;5043082;28;20031;-65
2022/09/15 01:35:06;;;;;;;58.22;23.85;;;14.00;99.90;;;;;;5046036;28;20394;-65
2022/09/15 01:37:38;;;;;;;54.35;23.45;;;14.00;99.90;;;;;;5052132;28;20063;-65
2022/09/15 01:40:05;;;;;;;49.63;22.58;;;14.10;99.90;;;;;;5044989;28;21685;-64
2022/09/15 01:42:33;;;;;;;49.45;20.55;;;14.10;99.90;;;;;;5053849;28;20033;-65
2022/09/15 01:45:05;;;;;;;48.35;22.38;;;14.10;99.90;;;;;;5052737;28;20746;-65
2022/09/15 01:47:33;;;;;;;50.95;22.73;;;13.90;99.90;;;;;;5041121;28;20163;-65
2022/09/15 01:50:09;;;;;;;53.10;22.63;;;14.00;99.90;;;;;;5041123;28;20033;-65
2022/09/15 01:52:39;;;;;;;47.47;21.42;;;14.00;99.90;;;;;;5042953;28;20021;-64
2022/09/15 01:55:15;;;;;;;50.78;21.42;;;13.90;99.90;;;;;;5046410;28;20511;-65
2022/09/15 01:57:41;;;;;;;48.55;22.40;;;13.90;99.90;;;;;;5053613;28;20505;-65
2022/09/15 02:00:07;;;;;;;48.85;21.73;;;13.90;99.90;;;;;;5048081;28;20025;-65
2022/09/15 02:02:42;;;;;;;49.58;22.40;;;13.80;99.90;;;;;;5056632;28;20061;-66
2022/09/15 02:05:19;;;;;;;53.80;22.88;;;13.90;99.90;;;;;;5056989;28;20159;-66
2022/09/15 02:08:05;;;;;;;51.58;22.23;;;13.80;99.90;;;;;;5061204;28;20016;-64
2022/09/15 02:10:33;;;;;;;70.05;23.73;;;13.90;99.90;;;;;;5055653;28;20043;-68
2022/09/15 02:13:36;;;;;;;58.35;24.17;;;13.90;99.90;;;;;;5062155;28;20020;-65
2022/09/15 02:16:03;;;;;;;67.35;23.25;;;13.90;99.90;;;;;;5029706;28;20391;-65
2022/09/15 02:18:40;;;;;;;73.47;24.90;;;13.90;99.90;;;;;;5058696;28;20066;-65
2022/09/15 02:21:17;;;;;;;62.15;25.52;;;13.80;99.90;;;;;;5062672;28;20491;-65
2022/09/15 02:23:52;;;;;;;76.28;25.35;;;13.80;99.90;;;;;;5065339;28;20731;-65
2022/09/15 02:26:23;;;;;;;61.08;22.58;;;13.80;99.90;;;;;;5053979;28;20025;-65
2022/09/15 02:28:51;;;;;;;60.53;22.85;;;13.80;99.90;;;;;;5060397;28;20025;-65
2022/09/15 02:31:18;;;;;;;62.28;24.73;;;13.90;99.90;;;;;;5062460;28;20452;-65
2022/09/15 02:33:50;;;;;;;60.08;23.63;;;13.90;99.90;;;;;;5050465;28;20025;-65
2022/09/15 02:36:19;;;;;;;69.80;25.17;;;13.90;99.90;;;;;;5046578;28;20024;-65
2022/09/15 02:38:50;;;;;;;63.08;24.25;;;13.90;99.90;;;;;;5047267;28;20033;-66
2022/09/15 02:41:16;;;;;;;58.83;24.30;;;13.90;99.90;;;;;;5045915;28;20036;-65
2022/09/15 02:43:49;;;;;;;59.40;26.02;;;14.00;99.90;;;;;;5045415;28;20576;-65
2022/09/15 02:46:18;;;;;;;68.25;24.45;;;14.00;99.90;;;;;;5050992;28;20109;-65
2022/09/15 02:48:43;;;;;;;70.07;25.92;;;14.00;99.90;;;;;;5047282;28;20107;-65
2022/09/15 02:51:09;;;;;;;67.43;23.90;;;14.00;99.90;;;;;;5048339;28;20108;-65
2022/09/15 02:53:35;;;;;;;61.70;24.00;;;14.10;99.90;;;;;;5052302;28;20028;-65
2022/09/15 02:56:02;;;;;;;58.65;22.77;;;14.10;99.90;;;;;;5055398;28;20078;-65
2022/09/15 02:58:28;;;;;;;63.95;25.02;;;14.10;99.90;;;;;;5055639;28;20032;-65
2022/09/15 03:00:55;;;;;;;61.40;24.75;;;14.10;99.90;;;;;;5055498;28;20033;-65
2022/09/15 03:03:21;;;;;;;55.95;23.98;;;14.10;99.90;;;;;;5050769;28;20051;-65
2022/09/15 03:05:46;;;;;;;56.00;23.42;;;14.10;99.90;;;;;;5054196;28;20116;-65
2022/09/15 03:08:12;;;;;;;52.72;22.63;;;14.10;99.90;;;;;;5048255;28;20035;-65
2022/09/15 03:10:38;;;;;;;53.40;22.58;;;14.20;99.90;;;;;;5053451;28;20383;-66
2022/09/15 03:13:03;;;;;;;58.15;24.70;;;14.20;99.90;;;;;;5055555;28;20127;-64
2022/09/15 03:15:29;;;;;;;57.35;23.13;;;14.10;99.90;;;;;;5050520;28;20025;-64
2022/09/15 03:17:55;;;;;;;58.83;22.65;;;14.10;99.90;;;;;;5052759;28;20032;-66
2022/09/15 03:20:29;;;;;;;57.35;22.02;;;14.00;99.90;;;;;;5050432;28;20153;-64
2022/09/15 03:22:54;;;;;;;57.33;22.85;;;14.00;99.90;;;;;;5052383;28;20313;-65
2022/09/15 03:25:20;;;;;;;50.17;20.73;;;14.00;99.90;;;;;;5052593;28;20137;-65
2022/09/15 03:27:46;;;;;;;50.40;22.45;;;13.90;99.90;;;;;;5057223;28;20464;-65
2022/09/15 03:30:13;;;;;;;55.33;22.25;;;13.80;99.90;;;;;;5046642;28;20851;-65
2022/09/15 03:32:38;;;;;;;56.97;22.40;;;13.70;99.90;;;;;;5050574;28;20021;-63
2022/09/15 03:35:05;;;;;;;47.42;20.73;;;13.60;99.90;;;;;;5051099;28;20029;-65
2022/09/15 03:37:31;;;;;;;53.25;21.20;;;13.60;99.90;;;;;;5052143;28;20021;-65
2022/09/15 03:39:57;;;;;;;59.67;23.45;;;13.60;99.90;;;;;;5064337;28;20041;-64
2022/09/15 03:42:22;;;;;;;52.42;22.13;;;13.60;99.90;;;;;;5059478;28;20082;-65
2022/09/15 03:44:48;;;;;;;46.75;22.75;;;13.60;99.90;;;;;;5058087;28;20079;-64
2022/09/15 03:47:14;;;;;;;55.00;21.58;;;13.70;99.90;;;;;;5057453;28;20063;-65
2022/09/15 03:49:39;;;;;;;52.83;23.00;;;13.80;99.90;;;;;;5057780;28;20059;-65
2022/09/15 03:52:05;;;;;;;50.45;21.40;;;13.60;99.90;;;;;;5050688;28;20095;-64
2022/09/15 03:54:30;;;;;;;44.67;20.25;;;13.50;99.90;;;;;;5054806;28;20036;-64
2022/09/15 03:56:56;;;;;;;50.50;21.77;;;13.40;99.90;;;;;;5043587;28;20126;-64
2022/09/15 03:59:22;;;;;;;48.10;20.65;;;13.30;99.90;;;;;;5043576;28;20032;-65
2022/09/15 04:01:49;;;;;;;59.30;22.40;;;13.30;99.90;;;;;;5043311;28;20410;-64
2022/09/15 04:04:14;;;;;;;56.55;21.67;;;13.20;99.90;;;;;;5046320;28;20021;-65
2022/09/15 04:06:40;;;;;;;45.78;19.35;;;13.30;99.90;;;;;;5043000;28;20710;-64
2022/09/15 04:09:06;;;;;;;51.08;21.92;;;13.30;99.90;;;;;;5045944;28;20025;-64
2022/09/15 04:11:32;;;;;;;51.22;21.27;;;13.30;99.90;;;;;;5055659;28;20148;-65
2022/09/15 04:13:58;;;;;;;56.90;21.42;;;13.30;99.90;;;;;;5056212;28;20083;-63
2022/09/15 04:16:26;;;;;;;45.28;19.52;;;13.20;99.90;;;;;;5053312;28;20036;-66
2022/09/15 04:18:54;;;;;;;63.17;21.02;;;13.10;99.90;;;;;;5052033;28;20028;-64
2022/09/15 04:21:21;;;;;;;52.47;21.45;;;13.00;99.90;;;;;;5050142;28;20364;-65
2022/09/15 04:23:47;;;;;;;58.47;23.63;;;13.00;99.90;;;;;;5051252;28;20035;-64
2022/09/15 04:26:19;;;;;;;57.60;23.95;;;13.10;99.90;;;;;;5052607;28;20029;-64
2022/09/15 04:28:44;;;;;;;54.08;21.85;;;13.10;99.90;;;;;;5050473;28;20029;-65
2022/09/15 04:31:13;;;;;;;61.13;24.02;;;13.20;99.90;;;;;;5058029;28;20135;-64
2022/09/15 04:33:40;;;;;;;54.85;23.90;;;13.30;99.90;;;;;;5057811;28;20032;-65
2022/09/15 04:36:09;;;;;;;64.97;24.55;;;13.40;99.90;;;;;;5046140;28;20442;-64
2022/09/15 04:38:34;;;;;;;58.92;22.27;;;13.40;99.90;;;;;;5040171;28;20037;-64
2022/09/15 04:41:00;;;;;;;56.25;21.75;;;13.30;99.90;;;;;;5045534;28;20076;-64
2022/09/15 04:43:26;;;;;;;53.10;21.10;;;13.30;99.90;;;;;;5042544;28;21510;-64
2022/09/15 04:45:52;;;;;;;43.38;19.25;;;13.40;99.90;;;;;;5043713;28;20055;-64
2022/09/15 04:48:18;;;;;;;47.35;21.35;;;13.40;99.90;;;;;;5048330;28;20724;-65
2022/09/15 04:50:44;;;;;;;51.10;19.25;;;13.40;99.90;;;;;;5042056;28;20107;-65
2022/09/15 04:53:09;;;;;;;52.67;21.50;;;13.30;99.90;;;;;;5037502;28;20136;-65
2022/09/15 04:55:35;;;;;;;52.10;22.17;;;13.30;99.90;;;;;;5041826;28;20037;-65
2022/09/15 04:58:02;;;;;;;54.55;21.50;;;13.30;99.90;;;;;;5045485;28;20059;-65
2022/09/15 05:00:29;;;;;;;46.65;21.65;;;13.20;99.90;;;;;;5039712;28;20099;-64
2022/09/15 05:02:54;;;;;;;50.00;21.83;;;13.30;99.90;;;;;;5040088;28;20368;-56
2022/09/15 05:05:20;;;;;;;53.45;22.38;;;13.30;99.90;;;;;;5040560;28;20024;-58
2022/09/15 05:07:47;;;;;;;61.40;22.13;;;13.30;99.90;;;;;;5049182;28;20027;-58
2022/09/15 05:10:14;;;;;;;52.72;21.85;;;13.40;99.90;;;;;;5050855;28;20056;-56
2022/09/15 05:12:40;;;;;;;65.53;24.05;;;13.40;99.90;;;;;;5038052;28;20037;-58
2022/09/15 05:15:06;;;;;;;59.30;23.85;;;13.40;99.90;;;;;;5042895;28;20107;-57
2022/09/15 05:17:32;;;;;;;61.60;22.35;;;13.50;99.90;;;;;;5051324;28;20078;-59
2022/09/15 05:19:59;;;;;;;68.18;25.25;;;13.60;99.90;;;;;;5049309;28;20036;-56
2022/09/15 05:22:25;;;;;;;59.25;23.08;;;13.60;99.90;;;;;;5050348;28;20500;-57
2022/09/15 05:24:50;;;;;;;64.70;23.08;;;13.60;99.90;;;;;;5052527;28;20052;-58
2022/09/15 05:27:16;;;;;;;59.72;23.45;;;13.60;99.90;;;;;;5049552;28;20031;-57
2022/09/15 05:29:42;;;;;;;70.43;23.95;;;13.70;99.90;;;;;;5052577;28;20501;-59
2022/09/15 05:32:07;;;;;;;51.08;22.33;;;13.70;99.90;;;;;;5047184;28;20044;-59
2022/09/15 05:34:33;;;;;;;62.63;23.73;;;13.70;99.90;;;;;;5045268;28;20017;-59
2022/09/15 05:36:58;;;;;;;55.08;22.38;;;13.80;99.90;;;;;;5056186;28;20035;-59
2022/09/15 05:39:24;;;;;;;66.93;24.08;;;13.80;99.90;;;;;;5054062;28;20059;-58
2022/09/15 05:41:49;;;;;;;63.80;24.30;;;13.80;99.90;;;;;;5070936;28;20467;-59
2022/09/15 05:44:15;;;;;;;66.88;23.20;;;13.70;99.90;;;;;;5050921;28;20063;-60
2022/09/15 05:46:40;;;;;;;58.17;23.85;;;13.80;99.90;;;;;;5050962;28;20025;-56
2022/09/15 05:49:07;;;;;;;57.00;22.70;;;13.70;99.90;;;;;;5060285;28;20028;-58
2022/09/15 05:51:33;;;;;;;60.05;24.05;;;13.80;99.90;;;;;;5066605;28;20040;-58
2022/09/15 05:53:59;;;;;;;64.30;22.50;;;13.80;99.90;;;;;;5064803;28;20060;-57
2022/09/15 05:56:25;;;;;;;62.00;24.60;;;13.80;99.90;;;;;;5063122;28;20025;-56
2022/09/15 05:58:51;;;;;;;65.57;24.05;;;13.90;99.90;;;;;;5049070;28;20063;-56
2022/09/15 06:01:19;;;;;;;61.88;23.85;;;13.90;99.90;;;;;;5062413;28;20033;-59
2022/09/15 06:03:46;;;;;;;62.25;23.45;;;13.90;99.90;;;;;;5055895;28;20562;-57
2022/09/15 06:06:12;;;;;;;67.25;25.15;;;13.90;99.90;;;;;;5055142;28;20032;-58
2022/09/15 06:08:49;;;;;;;65.55;25.27;;;13.90;99.90;;;;;;5050809;28;20021;-58
2022/09/15 06:11:17;;;;;;;66.95;24.52;;;13.90;99.90;;;;;;5070817;28;20013;-55
2022/09/15 06:13:45;;;;;;;63.17;22.50;;;14.00;99.90;;;;;;5061785;28;20029;-58
2022/09/15 06:16:13;;;;;;;52.72;23.00;;;14.10;99.90;;;;;;5070385;28;20020;-56
2022/09/15 06:18:40;;;;;;;61.15;23.15;;;14.10;99.90;;;;;;5060988;28;20021;-58
2022/09/15 06:21:17;;;;;;;60.08;22.92;;;14.20;99.90;;;;;;5052617;28;20449;-59
2022/09/15 06:23:43;;;;;;;54.42;21.15;;;14.20;99.90;;;;;;5049214;28;20067;-58
2022/09/15 06:26:13;;;;;;;52.72;22.85;;;14.30;99.90;;;;;;5050745;28;20021;-61
2022/09/15 06:28:43;;;;;;;50.22;21.13;;;14.30;99.90;;;;;;5050414;28;20029;-59
2022/09/15 06:31:11;;;;;;;61.90;21.50;;;14.30;99.90;;;;;;5049967;28;20454;-58
2022/09/15 06:33:39;;;;;;;53.67;21.70;;;14.30;99.90;;;;;;5062412;28;20505;-58
2022/09/15 06:36:06;;;;;;;45.38;20.40;;;14.40;99.90;;;;;;5051390;28;20063;-58
2022/09/15 06:38:31;;;;;;;55.40;20.70;;;14.50;99.90;;;;;;5057478;28;20108;-57
2022/09/15 06:40:58;;;;;;;47.75;20.10;;;14.50;99.90;;;;;;5051102;28;20462;-58
2022/09/15 06:43:24;;;;;;;43.75;20.75;;;14.50;99.90;;;;;;5050307;28;20033;-58
2022/09/15 06:45:51;;;;;;;43.13;18.92;;;14.60;99.90;;;;;;5055618;28;20033;-58
2022/09/15 06:48:17;;;;;;;46.20;18.20;;;14.70;99.90;;;;;;5066200;28;20494;-58
2022/09/15 06:50:42;;;;;;;53.92;19.70;;;14.70;99.90;;;;;;5068597;28;20037;-56
2022/09/15 06:53:08;;;;;;;42.03;19.80;;;14.70;99.90;;;;;;5049164;28;20025;-57
2022/09/15 06:55:33;;;;;;;39.60;18.10;;;14.80;99.90;;;;;;5050949;28;20049;-58
2022/09/15 06:57:59;;;;;;;40.42;18.33;;;14.70;99.90;;;;;;5056919;28;20060;-57
2022/09/15 07:00:25;;;;;;;42.15;17.85;;;14.80;99.90;;;;;;5073955;28;20101;-58
2022/09/15 07:02:50;;;;;;;45.53;18.50;;;14.80;99.90;;;;;;5056636;28;20036;-56
2022/09/15 07:05:16;;;;;;;38.45;17.15;;;14.80;99.90;;;;;;5060571;28;20044;-59
2022/09/15 07:07:42;;;;;;;41.22;17.33;;;14.80;99.90;;;;;;5053001;28;20024;-57
2022/09/15 07:10:08;;;;;;;40.30;18.50;;;14.90;99.90;;;;;;5055847;28;20021;-57
2022/09/15 07:12:33;;;;;;;35.58;16.70;;;14.90;99.90;;;;;;5065506;28;20032;-59
2022/09/15 07:14:59;;;;;;;31.58;15.45;;;14.90;99.90;;;;;;5056814;28;20044;-58
2022/09/15 07:17:25;;;;;;;35.03;16.90;;;14.90;99.90;;;;;;5060131;28;20037;-59
2022/09/15 07:19:51;;;;;;;38.08;17.55;;;14.90;99.90;;;;;;5067546;28;20078;-59
2022/09/15 07:22:16;;;;;;;40.47;19.15;;;15.00;99.90;;;;;;5070447;28;20052;-58
2022/09/15 07:24:42;;;;;;;37.47;17.45;;;15.10;99.90;;;;;;5054090;28;20029;-58
2022/09/15 07:27:07;;;;;;;48.10;18.80;;;15.10;99.90;;;;;;5054119;28;20568;-59
2022/09/15 07:29:33;;;;;;;48.35;18.25;;;15.10;99.90;;;;;;5054119;28;20390;-59
2022/09/15 07:31:59;;;;;;;32.10;16.13;;;15.20;99.90;;;;;;5054254;28;20021;-59
2022/09/15 07:34:24;;;;;;;35.70;18.88;;;15.20;99.90;;;;;;5053752;28;20116;-54
2022/09/15 07:36:50;;;;;;;38.95;18.42;;;15.20;99.90;;;;;;5071024;28;20033;-57
2022/09/15 07:39:15;;;;;;;40.05;17.27;;;15.20;99.90;;;;;;5073273;28;20032;-58
2022/09/15 07:41:41;;;;;;;37.35;17.48;;;15.30;99.90;;;;;;5073082;28;20033;-56
2022/09/15 07:44:08;;;;;;;32.92;16.58;;;15.40;99.90;;;;;;5066604;28;20036;-57
2022/09/15 07:46:34;;;;;;;36.25;17.80;;;15.40;99.90;;;;;;5053864;28;20029;-58
2022/09/15 07:49:01;;;;;;;45.38;19.08;;;15.50;99.90;;;;;;5055083;28;20025;-58
2022/09/15 07:51:27;;;;;;;36.30;16.65;;;15.50;99.90;;;;;;5055402;28;20021;-56
2022/09/15 07:53:53;;;;;;;34.70;16.38;;;15.70;99.90;;;;;;5046322;28;20114;-58
2022/09/15 07:56:20;;;;;;;33.75;15.90;;;15.80;99.90;;;;;;5051360;28;20029;-59
2022/09/15 07:58:46;;;;;;;38.63;18.15;;;15.80;99.90;;;;;;5050143;28;21280;-58
2022/09/15 08:01:15;;;;;;;33.88;18.15;;;15.80;99.90;;;;;;5047462;28;20491;-57
2022/09/15 08:03:49;;;;;;;32.25;18.60;;;15.80;99.90;;;;;;5050921;28;20487;-56
2022/09/15 08:06:16;;;;;;;33.97;18.85;;;15.90;99.90;;;;;;5051173;28;20036;-59
2022/09/15 08:08:42;;;;;;;32.08;17.42;;;15.90;99.90;;;;;;5041598;28;20029;-60
2022/09/15 08:11:10;;;;;;;33.15;17.95;;;16.00;99.90;;;;;;5048015;28;20029;-58
2022/09/15 08:13:36;;;;;;;36.85;17.20;;;16.00;99.90;;;;;;5052177;28;20028;-58
2022/09/15 08:16:09;;;;;;;30.65;15.68;;;15.90;99.90;;;;;;5053345;28;20116;-59
2022/09/15 08:18:35;;;;;;;32.20;16.13;;;15.90;99.90;;;;;;5061108;28;20317;-59
2022/09/15 08:21:12;;;;;;;30.13;16.83;;;16.00;99.90;;;;;;5055777;28;20027;-57
2022/09/15 08:23:38;;;;;;;29.17;15.80;;;16.10;99.90;;;;;;5048875;28;20032;-57
2022/09/15 08:26:08;;;;;;;27.60;14.43;;;16.10;99.90;;;;;;5053332;28;20029;-57
2022/09/15 08:28:34;;;;;;;32.85;14.90;;;16.10;99.90;;;;;;5059701;28;20070;-59
2022/09/15 08:31:05;;;;;;;26.75;15.60;;;16.30;99.90;;;;;;5051785;28;20036;-58
2022/09/15 08:33:31;;;;;;;27.50;14.05;;;16.20;99.90;;;;;;5056900;28;20021;-58
2022/09/15 08:36:02;;;;;;;32.40;13.40;;;16.30;99.90;;;;;;5057729;28;20108;-58
2022/09/15 08:38:27;;;;;;;31.30;14.05;;;16.30;99.90;;;;;;5048796;28;20039;-59
2022/09/15 08:41:00;;;;;;;30.73;12.60;;;16.40;99.90;;;;;;5052412;28;20372;-60
2022/09/15 08:43:30;;;;;;;25.85;13.30;;;16.40;99.90;;;;;;5047970;28;20064;-57
2022/09/15 08:46:03;;;;;;;25.13;12.50;;;16.60;99.90;;;;;;5057237;28;20112;-57
2022/09/15 08:48:55;;;;;;;25.88;12.57;;;16.60;99.90;;;;;;5052271;28;20497;-57
2022/09/15 08:51:29;;;;;;;21.88;12.98;;;16.60;99.90;;;;;;5054240;28;20021;-58
2022/09/15 08:54:06;;;;;;;29.23;11.77;;;16.60;99.90;;;;;;5051720;28;20711;-56
2022/09/15 08:56:33;;;;;;;23.30;12.13;;;16.60;99.90;;;;;;5050790;28;20025;-57
2022/09/15 08:58:59;;;;;;;24.23;14.68;;;16.70;99.90;;;;;;5054566;28;20029;-55
2022/09/15 09:01:48;;;;;;;29.45;14.25;;;16.60;99.90;;;;;;5047754;28;20056;-58
2022/09/15 09:04:37;;;;;;;23.83;12.45;;;16.60;99.90;;;;;;5049622;28;20079;-59
2022/09/15 09:07:35;;;;;;;21.95;11.52;;;16.50;99.90;;;;;;5054211;28;20490;-58
2022/09/15 09:10:24;;;;;;;24.92;10.15;;;16.60;99.90;;;;;;5033745;28;20174;-58
2022/09/15 09:13:25;;;;;;;20.05;9.35;;;16.80;99.90;;;;;;5052722;28;20043;-57
2022/09/15 09:16:21;;;;;;;20.23;11.05;;;16.80;99.90;;;;;;5046607;28;20044;-56
2022/09/15 09:19:12;;;;;;;26.85;11.07;;;16.90;99.90;;;;;;5048178;28;20078;-58
2022/09/15 09:21:41;;;;;;;26.63;10.05;;;16.80;99.90;;;;;;5049869;28;20021;-53
2022/09/15 09:24:27;;;;;;;26.05;9.38;;;16.80;99.90;;;;;;5061560;28;20462;-58
2022/09/15 09:26:54;;;;;;;20.00;9.25;;;16.80;99.90;;;;;;5090113;22;20059;-58
2022/09/15 09:29:35;;;;;;;20.38;9.18;;;17.00;99.90;;;;;;5068544;28;20112;-58
2022/09/15 09:32:03;;;;;;;14.80;8.15;;;17.20;99.90;;;;;;5068143;28;20039;-57
2022/09/15 09:34:44;;;;;;;16.27;10.13;;;17.30;99.90;;;;;;5068660;28;20494;-57
2022/09/15 09:37:14;;;;;;;15.70;8.93;;;17.10;99.90;;;;;;5051941;28;20035;-58
2022/09/15 09:39:40;;;;;;;16.50;7.78;;;17.10;99.90;;;;;;5049351;28;20028;-58
2022/09/15 09:42:12;;;;;;;13.52;8.15;;;17.20;99.90;;;;;;5049183;28;20390;-58
2022/09/15 09:44:39;;;;;;;17.35;7.35;;;17.20;99.90;;;;;;5048475;28;20438;-59
2022/09/15 09:47:05;;;;;;;21.35;6.80;;;17.30;99.90;;;;;;5048920;28;20056;-57
2022/09/15 09:49:37;;;;;;;13.93;7.15;;;17.30;99.90;;;;;;5049967;28;20095;-59
2022/09/15 09:52:03;;;;;;;13.65;7.13;;;17.50;99.90;;;;;;5049418;28;20021;-59
2022/09/15 09:54:31;;;;;;;19.80;7.55;;;17.50;99.90;;;;;;5048079;28;20025;-60
2022/09/15 09:57:12;;;;;;;10.25;5.50;;;17.50;99.90;;;;;;5048972;28;20481;-59
2022/09/15 09:59:43;;;;;;;10.43;5.32;;;17.60;99.90;;;;;;5049616;28;20021;-59
2022/09/15 10:02:14;;;;;;;19.10;6.18;;;17.60;99.90;;;;;;5050067;28;20045;-58
2022/09/15 10:04:47;;;;;;;14.73;5.38;;;17.40;99.90;;;;;;5048884;28;20526;-57
2022/09/15 10:07:15;;;;;;;7.95;3.10;;;17.40;99.90;;;;;;5047297;28;20466;-58
2022/09/15 10:09:58;;;;;;;9.70;3.38;;;17.40;99.90;;;;;;5047502;28;20095;-58
2022/09/15 10:12:30;;;;;;;13.85;4.22;;;17.50;99.90;;;;;;5043648;28;20083;-58
2022/09/15 10:15:00;;;;;;;5.10;2.47;;;17.50;99.90;;;;;;5047383;28;20021;-57
2022/09/15 10:17:35;;;;;;;12.93;3.00;;;17.70;99.90;;;;;;5050358;28;20035;-58
2022/09/15 10:20:01;;;;;;;;;;;17.70;99.90;;;;;;5050170;28;20491;-57
2022/09/15 10:22:37;;;;;;;11.45;2.90;;;17.70;99.90;;;;;;5048945;28;20357;-57
2022/09/15 10:25:25;;;;;;;15.15;3.22;;;17.60;99.90;;;;;;5048540;28;20029;-58
2022/09/15 10:28:14;;;;;;;9.85;3.28;;;17.60;99.90;;;;;;5048178;28;20037;-58
2022/09/15 10:31:07;;;;;;;8.68;4.32;;;17.80;99.90;;;;;;5047419;28;20032;-57
2022/09/15 10:33:35;;;;;;;11.18;4.30;;;17.90;99.90;;;;;;5050586;28;20025;-58
2022/09/15 10:36:18;;;;;;;8.07;3.22;;;17.80;99.90;;;;;;5050785;28;20033;-60
2022/09/15 10:38:47;;;;;;;6.90;2.78;;;17.90;99.90;;;;;;5046507;28;20025;-60
2022/09/15 10:41:15;;;;;;;11.68;2.53;;;17.80;99.90;;;;;;5056353;28;20013;-59
2022/09/15 10:43:41;;;;;;;9.32;2.25;;;17.80;99.90;;;;;;5050088;28;20103;-61
2022/09/15 10:46:19;;;;;;;4.68;2.20;;;17.90;99.90;;;;;;5052999;28;20100;-60
2022/09/15 10:49:19;;;;;;;11.60;2.47;;;17.90;99.90;;;;;;5049000;28;20040;-57
2022/09/15 10:51:48;;;;;;;8.38;2.47;;;17.80;99.90;;;;;;5050263;28;20120;-58
2022/09/15 10:54:25;;;;;;;4.88;1.13;;;17.80;99.90;;;;;;5049696;28;20029;-58
2022/09/15 10:57:08;;;;;;;5.65;1.17;;;17.80;99.90;;;;;;5051648;28;20037;-60
2022/09/15 11:00:04;;;;;;;6.03;1.88;;;17.80;99.90;;;;;;5047154;28;20430;-60
2022/09/15 11:02:57;;;;;;;6.55;2.05;;;17.90;99.90;;;;;;5048233;28;20064;-58
2022/09/15 11:05:47;;;;;;;4.72;1.55;;;17.80;99.90;;;;;;5047204;28;20033;-56
2022/09/15 11:08:13;;;;;;;6.25;1.40;;;17.80;99.90;;;;;;5049243;28;20051;-59
2022/09/15 11:10:52;;;;;;;6.55;1.45;;;17.90;99.90;;;;;;5047023;28;20395;-59
2022/09/15 11:13:41;;;;;;;9.07;1.52;;;18.00;99.90;;;;;;5043578;28;20479;-55
2022/09/15 11:16:29;;;;;;;8.13;1.95;;;18.10;99.90;;;;;;5047833;28;20036;-56
2022/09/15 11:19:31;;;;;;;4.82;1.27;;;18.10;99.90;;;;;;5046424;28;20032;-58
2022/09/15 11:22:23;;;;;;;6.53;1.75;;;18.10;99.90;;;;;;5043588;28;20422;-60
2022/09/15 11:25:02;;;;;;;6.40;1.90;;;18.10;99.90;;;;;;5033671;28;20040;-57
2022/09/15 11:27:43;;;;;;;7.13;2.20;;;18.10;99.90;;;;;;5038327;28;20067;-57
2022/09/15 11:30:22;;;;;;;8.00;2.28;;;18.10;99.90;;;;;;5048958;28;20099;-57
2022/09/15 11:32:56;;;;;;;6.25;2.70;;;18.10;99.90;;;;;;5047858;28;20035;-57
2022/09/15 11:35:44;;;;;;;12.85;2.88;;;18.00;99.90;;;;;;5046819;28;20021;-57
2022/09/15 11:38:31;;;;;;;8.93;3.40;;;17.90;99.90;;;;;;5046635;28;20652;-57
2022/09/15 11:41:14;;;;;;;9.38;3.15;;;17.90;99.90;;;;;;5041488;28;20028;-57
2022/09/15 11:43:57;;;;;;;9.13;2.53;;;17.90;99.90;;;;;;5042753;28;20410;-58
2022/09/15 11:47:01;;;;;;;10.50;2.10;;;18.00;99.90;;;;;;5046655;28;20051;-57
2022/09/15 11:49:48;;;;;;;7.20;1.65;;;18.00;99.90;;;;;;5042908;28;20487;-57
2022/09/15 11:52:37;;;;;;;7.80;2.00;;;18.00;99.90;;;;;;5045938;28;20028;-58
2022/09/15 11:55:13;;;;;;;5.90;1.90;;;18.10;99.90;;;;;;5044679;28;20578;-58
2022/09/15 11:57:53;;;;;;;3.15;1.55;;;18.30;99.90;;;;;;5048963;28;20437;-59
2022/09/15 12:00:19;;;;;;;8.18;2.58;;;18.60;99.90;;;;;;5046992;28;20398;-59
2022/09/15 12:03:12;;;;;;;2.85;2.00;;;18.80;99.90;;;;;;5047487;28;20060;-58
2022/09/15 12:05:44;;;;;;;5.85;2.20;;;18.80;99.90;;;;;;5042483;28;20124;-56
2022/09/15 12:08:09;;;;;;;5.28;1.80;;;18.70;99.90;;;;;;5046515;28;20495;-56
2022/09/15 12:10:45;;;;;;;7.93;1.67;;;18.60;99.90;;;;;;5049742;28;20120;-59
2022/09/15 12:13:16;;;;;;;4.88;1.70;;;18.50;99.90;;;;;;5044757;28;20479;-57
2022/09/15 12:15:43;;;;;;;4.60;1.58;;;18.30;99.90;;;;;;5045552;28;20044;-59
2022/09/15 12:18:25;;;;;;;9.48;2.33;;;18.30;99.90;;;;;;5045846;28;20399;-57
2022/09/15 12:21:15;;;;;;;3.60;1.55;;;18.20;99.90;;;;;;5043097;28;20033;-58
2022/09/15 12:23:59;;;;;;;5.78;1.73;;;18.30;99.90;;;;;;5040323;28;20495;-56
2022/09/15 12:26:26;;;;;;;5.63;1.60;;;18.30;99.90;;;;;;5039636;28;20045;-59
2022/09/15 12:28:57;;;;;;;4.55;1.45;;;18.20;99.90;;;;;;5044541;28;20024;-57
2022/09/15 12:31:31;;;;;;;4.57;1.45;;;18.10;99.90;;;;;;5044188;28;20025;-58
2022/09/15 12:34:24;;;;;;;7.85;1.77;;;18.10;99.90;;;;;;5040138;28;20021;-59
2022/09/15 12:36:54;;;;;;;13.43;1.33;;;18.20;99.90;;;;;;5036461;28;20215;-57
2022/09/15 12:39:25;;;;;;;5.07;1.15;;;18.10;99.90;;;;;;5045127;28;20055;-57
2022/09/15 12:42:06;;;;;;;3.30;1.23;;;18.10;99.90;;;;;;5047519;28;20112;-56
2022/09/15 12:44:34;;;;;;;9.55;1.15;;;18.20;99.90;;;;;;5041061;28;20040;-58
2022/09/15 12:47:05;;;;;;;4.78;1.10;;;18.50;99.90;;;;;;5036504;28;20030;-56
2022/09/15 12:49:42;;;;;;;6.10;1.40;;;18.70;99.90;;;;;;5034185;28;20048;-55
2022/09/15 12:52:09;;;;;;;1.38;0.82;;;18.80;99.90;;;;;;5027276;28;20040;-54
2022/09/15 12:54:38;;;;;;;7.68;1.63;;;18.80;99.90;;;;;;5031701;28;20405;-59